Flight Track Log - Related Links

Times and Time Zones

All times are in EDT time to prevent confusion due to time zone crossing. See the UAL383 flight status page for this flight to view local times or setup timezone preferences in your user account.

Time Position Orientation Groundspeed Altitude Reporting Facility
EDT Latitude Longitude Course Direction KTS MPH feet Rate Location/Type
Mon 04:12:36 AM 21.3000 -157.9333 105° East 190 219 1,000  Level Honolulu Center
Mon 04:13:36 AM 21.2333 -157.9333 180° South 250 288 3,200 2,250 Climbing Honolulu Center
Mon 04:14:00 AM 21.2456 -157.6355 108° East  Level FlightAware Approximate
Mon 04:14:36 AM 21.1667 -157.9000 155° Southeast 270 311 5,500  Level Honolulu Center
Mon 04:15:00 AM 21.2040 -157.4967 108° East  Level FlightAware Approximate
Mon 04:15:36 AM 21.1000 -157.8667 155° Southeast 280 322 8,100  Level Honolulu Center
Mon 04:16:00 AM 21.1757 -157.3544 100° East  Level FlightAware Approximate
Mon 04:16:36 AM 21.0667 -157.7833 113° Southeast 300 345 10,200  Level Honolulu Center
Mon 04:17:00 AM 21.1448 -157.2126 105° East  Level FlightAware Approximate
Mon 04:17:36 AM 21.0500 -157.6833 100° East 340 391 11,500  Level Honolulu Center
Mon 04:18:36 AM 21.0500 -157.5833 90° East 340 391 13,700 1,800 Climbing Honolulu Center
Mon 04:19:36 AM 21.0667 -157.4833 80° East 380 437 15,100 1,600 Climbing Honolulu Center
Mon 04:20:36 AM 21.1000 -157.3667 73° East 400 460 16,900 1,750 Climbing Honolulu Center
Mon 04:21:36 AM 21.1167 -157.2667 80° East 400 460 18,600 1,550 Climbing Honolulu Center
Mon 04:22:36 AM 21.1500 -157.1333 75° East 420 483 20,000 1,488 Climbing Honolulu Center
Mon 04:23:37 AM 21.1833 -157.0167 73° East 420 483 21,600 1,488 Climbing Honolulu Center
Mon 04:24:37 AM 21.2167 -156.8833 75° East 430 495 23,000 1,300 Climbing Honolulu Center
Mon 04:25:37 AM 21.2500 -156.7500 75° East 440 506 24,200 1,300 Climbing Honolulu Center
Mon 04:26:37 AM 21.2833 -156.6167 75° East 450 518 25,600 1,200 Climbing Honolulu Center
Mon 04:27:37 AM 21.3167 -156.4833 75° East 460 529 26,600 1,100 Climbing Honolulu Center
Mon 04:28:37 AM 21.3333 -156.3500 82° East 470 541 27,800 1,150 Climbing Honolulu Center
Mon 04:29:37 AM 21.3833 -156.2167 68° East 480 552 28,900 1,041 Climbing Honolulu Center
Mon 04:30:38 AM 21.4000 -156.0833 82° East 480 552 29,900 1,140 Climbing Honolulu Center
Mon 04:31:38 AM 21.4500 -155.9333 70° East 490 564 31,200 1,261 Climbing Honolulu Center
Mon 04:32:37 AM 21.4833 -155.7833 77° East 490 564 32,400 1,050 Climbing Honolulu Center
Mon 04:33:38 AM 21.5000 -155.6833 80° East 480 552 33,300 793 Climbing Honolulu Center
Mon 04:34:38 AM 21.5333 -155.5333 77° East 470 541 34,000 350 Climbing Honolulu Center
Mon 04:35:38 AM 21.5667 -155.4000 75° East 480 552 34,000  Level Honolulu Center
Mon 04:36:38 AM 21.6000 -155.2500 77° East 490 564 34,000  Level Honolulu Center
Mon 04:37:38 AM 21.6333 -155.1167 75° East 500 575 34,000  Level Honolulu Center
Mon 04:38:38 AM 21.6667 -154.9667 77° East 490 564 34,000  Level Honolulu Center
Mon 04:39:38 AM 21.7000 -154.8167 77° East 490 564 34,000  Level Honolulu Center
Mon 04:40:38 AM 21.7333 -154.6833 75° East 490 564 34,000  Level Honolulu Center
Mon 04:41:38 AM 21.7667 -154.5333 77° East 490 564 34,000  Level Honolulu Center
Mon 04:42:39 AM 21.8000 -154.4000 75° East 490 564 34,000  Level Honolulu Center
Mon 04:43:39 AM 21.8167 -154.2500 83° East 490 564 34,000  Level Honolulu Center
Mon 04:44:39 AM 21.8500 -154.1000 77° East 500 575 34,000  Level Honolulu Center
Mon 04:45:39 AM 21.8833 -153.9667 75° East 500 575 34,000  Level Honolulu Center
Mon 04:46:39 AM 21.9167 -153.8167 77° East 500 575 34,000  Level Honolulu Center
Mon 04:48:00 AM 21.9585 -153.6234 77° East  Level FlightAware Approximate
Mon 04:55:00 AM 22.1716 -152.6192 77° East  Level FlightAware Approximate
Mon 04:56:00 AM 22.2015 -152.4755 77° East  Level FlightAware Approximate
Mon 04:57:00 AM 22.2314 -152.3317 77° East  Level FlightAware Approximate
Mon 04:58:00 AM 22.2610 -152.1879 77° East  Level FlightAware Approximate
Mon 04:59:00 AM 22.2906 -152.0440 77° East  Level FlightAware Approximate
Mon 05:00:00 AM 22.3241 -151.9019 62° Northeast  Level FlightAware Approximate
Mon 05:01:00 AM 22.3881 -151.7716 62° Northeast  Level FlightAware Approximate
Mon 05:01:15 AM 22.3500 -151.8833 62° Northeast 489 563 34,000  Level Oakland Oceanic (ODAPS)
Mon 05:02:00 AM 22.4518 -151.6412 62° Northeast  Level FlightAware Approximate
Mon 05:03:00 AM 22.5154 -151.5106 62° Northeast  Level FlightAware Approximate
Mon 05:04:00 AM 22.5790 -151.3799 62° Northeast  Level FlightAware Approximate
Mon 05:05:00 AM 22.6424 -151.2491 62° Northeast  Level FlightAware Approximate
Mon 05:06:00 AM 22.7057 -151.1182 62° Northeast  Level FlightAware Approximate
Mon 05:07:00 AM 22.8567 -150.8420 62° Northeast 489 563 34,000  Level FlightAware Transoceanic
Mon 05:08:00 AM 22.9195 -150.7113 62° Northeast 489 563 34,000  Level FlightAware Transoceanic
Mon 05:09:00 AM 22.9823 -150.5805 63° Northeast 489 563 34,000  Level FlightAware Transoceanic
Mon 05:10:00 AM 23.0450 -150.4495 63° Northeast 489 563 34,000  Level FlightAware Transoceanic
Mon 05:11:00 AM 23.1075 -150.3185 63° Northeast 489 563 34,000  Level FlightAware Transoceanic
Mon 05:12:00 AM 23.1699 -150.1873 63° Northeast 489 563 34,000  Level FlightAware Transoceanic
Mon 05:13:00 AM 23.2322 -150.0560 63° Northeast 489 563 34,000  Level FlightAware Transoceanic
Mon 05:14:00 AM 23.2945 -149.9245 63° Northeast 489 563 34,000  Level FlightAware Transoceanic
Mon 05:15:00 AM 23.3566 -149.7930 63° Northeast 489 563 34,000  Level FlightAware Transoceanic
Mon 05:16:00 AM 23.4185 -149.6613 63° Northeast 489 563 34,000  Level FlightAware Transoceanic
Mon 05:17:00 AM 23.4804 -149.5295 63° Northeast 489 563 34,000  Level FlightAware Transoceanic
Mon 05:18:00 AM 23.5422 -149.3975 63° Northeast 489 563 34,000  Level FlightAware Transoceanic
Mon 05:19:00 AM 23.6038 -149.2655 63° Northeast 489 563 34,000  Level FlightAware Transoceanic
Mon 05:20:00 AM 23.6654 -149.1333 63° Northeast 489 563 34,000  Level FlightAware Transoceanic
Mon 05:21:00 AM 23.7268 -149.0010 63° Northeast 489 563 34,000  Level FlightAware Transoceanic
Mon 05:22:00 AM 23.7882 -148.8686 63° Northeast 489 563 34,000  Level FlightAware Transoceanic
Mon 05:23:00 AM 23.8494 -148.7360 63° Northeast 489 563 34,000  Level FlightAware Transoceanic
Mon 05:24:00 AM 23.9105 -148.6033 63° Northeast 489 563 34,000  Level FlightAware Transoceanic
Mon 05:25:00 AM 23.9714 -148.4705 63° Northeast 489 563 34,000  Level FlightAware Transoceanic
Mon 05:26:00 AM 24.0323 -148.3376 63° Northeast 489 563 34,000  Level FlightAware Transoceanic
Mon 05:27:00 AM 24.0931 -148.2045 63° Northeast 489 563 34,000  Level FlightAware Transoceanic
Mon 05:28:00 AM 24.1537 -148.0714 64° Northeast 489 563 34,000  Level FlightAware Transoceanic
Mon 05:29:00 AM 24.2142 -147.9381 64° Northeast 489 563 34,000  Level FlightAware Transoceanic
Mon 05:30:00 AM 24.2746 -147.8046 64° Northeast 489 563 34,000  Level FlightAware Transoceanic
Mon 05:31:00 AM 24.3349 -147.6711 64° Northeast 489 563 34,000  Level FlightAware Transoceanic
Mon 05:32:00 AM 24.3951 -147.5374 64° Northeast 489 563 34,000  Level FlightAware Transoceanic
Mon 05:33:00 AM 24.4552 -147.4036 64° Northeast 489 563 34,000  Level FlightAware Transoceanic
Mon 05:34:00 AM 24.5151 -147.2696 64° Northeast 489 563 34,000  Level FlightAware Transoceanic
Mon 05:35:00 AM 24.5749 -147.1355 64° Northeast 489 563 34,000  Level FlightAware Transoceanic
Mon 05:36:00 AM 24.6346 -147.0013 64° Northeast 489 563 34,000  Level FlightAware Transoceanic
Mon 05:37:00 AM 24.6942 -146.8670 64° Northeast 489 563 34,000  Level FlightAware Transoceanic
Mon 05:38:00 AM 24.7536 -146.7326 64° Northeast 489 563 34,000  Level FlightAware Transoceanic
Mon 05:39:00 AM 24.8130 -146.5980 64° Northeast 489 563 34,000  Level FlightAware Transoceanic
Mon 05:40:00 AM 24.8722 -146.4633 64° Northeast 489 563 34,000  Level FlightAware Transoceanic
Mon 05:41:00 AM 24.9313 -146.3284 64° Northeast 489 563 34,000  Level FlightAware Transoceanic
Mon 05:42:00 AM 24.9903 -146.1935 64° Northeast 489 563 34,000  Level FlightAware Transoceanic
Mon 05:43:00 AM 25.0491 -146.0584 64° Northeast 489 563 34,000  Level FlightAware Transoceanic
Mon 05:44:00 AM 25.1079 -145.9231 64° Northeast 489 563 34,000  Level FlightAware Transoceanic
Mon 05:45:00 AM 25.1665 -145.7878 64° Northeast 489 563 34,000  Level FlightAware Transoceanic
Mon 05:46:00 AM 25.2250 -145.6523 65° Northeast 489 563 34,000  Level FlightAware Transoceanic
Mon 05:47:00 AM 25.2833 -145.5167 65° Northeast 489 563 34,000  Level FlightAware Transoceanic
Mon 05:48:00 AM 25.3425 -145.3780 65° Northeast 489 563 34,000  Level FlightAware Transoceanic
Mon 05:49:00 AM 25.4016 -145.2392 65° Northeast 489 563 34,000  Level FlightAware Transoceanic
Mon 05:49:08 AM 25.2833 -145.5167 65° Northeast 498 573 34,000  Level Oakland Oceanic (ODAPS)
Mon 05:50:00 AM 25.4605 -145.1003 65° Northeast 489 563 34,000  Level FlightAware Transoceanic
Mon 05:51:00 AM 25.5193 -144.9612 65° Northeast 489 563 34,000  Level FlightAware Transoceanic
Mon 05:52:00 AM 25.5779 -144.8220 65° Northeast 489 563 34,000  Level FlightAware Transoceanic
Mon 05:53:00 AM 25.6365 -144.6826 65° Northeast 489 563 34,000  Level FlightAware Transoceanic
Mon 05:54:00 AM 25.6949 -144.5431 65° Northeast 489 563 34,000  Level FlightAware Transoceanic
Mon 05:55:00 AM 25.8113 -144.2637 65° Northeast 498 573 34,000  Level FlightAware Transoceanic
Mon 05:56:00 AM 25.8692 -144.1239 65° Northeast 498 573 34,000  Level FlightAware Transoceanic
Mon 05:57:00 AM 25.9271 -143.9838 65° Northeast 498 573 34,000  Level FlightAware Transoceanic
Mon 05:58:00 AM 25.9848 -143.8436 65° Northeast 498 573 34,000  Level FlightAware Transoceanic
Mon 05:59:00 AM 26.0424 -143.7033 65° Northeast 498 573 34,000  Level FlightAware Transoceanic
Mon 06:00:00 AM 26.0999 -143.5629 66° East 498 573 34,000  Level FlightAware Transoceanic
Mon 06:01:00 AM 26.1572 -143.4223 66° East 498 573 34,000  Level FlightAware Transoceanic
Mon 06:02:00 AM 26.2144 -143.2816 66° East 498 573 34,000  Level FlightAware Transoceanic
Mon 06:03:00 AM 26.2714 -143.1407 66° East 498 573 34,000  Level FlightAware Transoceanic
Mon 06:04:00 AM 26.3283 -142.9997 66° East 498 573 34,000  Level FlightAware Transoceanic
Mon 06:05:00 AM 26.3851 -142.8586 66° East 498 573 34,000  Level FlightAware Transoceanic
Mon 06:06:00 AM 26.4417 -142.7173 66° East 498 573 34,000  Level FlightAware Transoceanic
Mon 06:07:00 AM 26.4982 -142.5759 66° East 498 573 34,000  Level FlightAware Transoceanic
Mon 06:08:00 AM 26.5546 -142.4343 66° East 498 573 34,000  Level FlightAware Transoceanic
Mon 06:09:00 AM 26.6108 -142.2926 66° East 498 573 34,000  Level FlightAware Transoceanic
Mon 06:10:00 AM 26.6669 -142.1508 66° East 498 573 34,000  Level FlightAware Transoceanic
Mon 06:11:00 AM 26.7228 -142.0088 66° East 498 573 34,000  Level FlightAware Transoceanic
Mon 06:12:00 AM 26.7786 -141.8667 66° East 498 573 34,000  Level FlightAware Transoceanic
Mon 06:13:00 AM 26.8342 -141.7245 66° East 498 573 34,000  Level FlightAware Transoceanic
Mon 06:14:00 AM 26.8897 -141.5821 66° East 498 573 34,000  Level FlightAware Transoceanic
Mon 06:15:00 AM 26.9451 -141.4395 66° East 498 573 34,000  Level FlightAware Transoceanic
Mon 06:16:00 AM 27.0003 -141.2969 67° East 498 573 34,000  Level FlightAware Transoceanic
Mon 06:17:00 AM 27.0554 -141.1541 67° East 498 573 34,000  Level FlightAware Transoceanic
Mon 06:18:00 AM 27.1103 -141.0111 67° East 498 573 34,000  Level FlightAware Transoceanic
Mon 06:19:00 AM 27.1651 -140.8680 67° East 498 573 34,000  Level FlightAware Transoceanic
Mon 06:20:00 AM 27.2198 -140.7248 67° East 498 573 34,000  Level FlightAware Transoceanic
Mon 06:21:00 AM 27.2743 -140.5814 67° East 498 573 34,000  Level FlightAware Transoceanic
Mon 06:22:00 AM 27.3286 -140.4379 67° East 498 573 34,000  Level FlightAware Transoceanic
Mon 06:23:00 AM 27.3828 -140.2943 67° East 498 573 34,000  Level FlightAware Transoceanic
Mon 06:24:00 AM 27.4369 -140.1505 67° East 498 573 34,000  Level FlightAware Transoceanic
Mon 06:25:00 AM 27.4908 -140.0065 67° East 498 573 34,000  Level FlightAware Transoceanic
Mon 06:26:00 AM 27.5445 -139.8625 67° East 498 573 34,000  Level FlightAware Transoceanic
Mon 06:27:00 AM 27.5982 -139.7182 67° East 498 573 34,000  Level FlightAware Transoceanic
Mon 06:28:00 AM 27.6516 -139.5739 67° East 498 573 34,000  Level FlightAware Transoceanic
Mon 06:29:00 AM 27.7049 -139.4294 67° East 498 573 34,000  Level FlightAware Transoceanic
Mon 06:30:00 AM 27.7581 -139.2848 67° East 498 573 34,000  Level FlightAware Transoceanic
Mon 06:31:00 AM 27.8111 -139.1400 68° East 498 573 34,000  Level FlightAware Transoceanic
Mon 06:32:00 AM 27.8640 -138.9951 68° East 498 573 34,000  Level FlightAware Transoceanic
Mon 06:33:00 AM 27.9167 -138.8500 68° East 498 573 34,000  Level FlightAware Transoceanic
Mon 06:34:00 AM 27.9698 -138.7030 68° East 498 573 34,000  Level FlightAware Transoceanic
Mon 06:35:00 AM 28.0228 -138.5560 68° East 498 573 34,000  Level FlightAware Transoceanic
Mon 06:35:12 AM 27.9167 -138.8500 68° East 495 570 34,000  Level Oakland Oceanic (ODAPS)
Mon 06:36:00 AM 28.0757 -138.4087 68° East 498 573 34,000  Level FlightAware Transoceanic
Mon 06:37:00 AM 28.1284 -138.2613 68° East 498 573 34,000  Level FlightAware Transoceanic
Mon 06:38:00 AM 28.1809 -138.1138 68° East 498 573 34,000  Level FlightAware Transoceanic
Mon 06:39:00 AM 28.2333 -137.9661 68° East 498 573 34,000  Level FlightAware Transoceanic
Mon 06:40:00 AM 28.2855 -137.8183 68° East 498 573 34,000  Level FlightAware Transoceanic
Mon 06:41:00 AM 28.3291 -137.6945 68° East 495 570 34,000  Level FlightAware Transoceanic
Mon 06:42:00 AM 28.3799 -137.5494 68° East 495 570 34,000  Level FlightAware Transoceanic
Mon 06:43:00 AM 28.4306 -137.4042 68° East 495 570 34,000  Level FlightAware Transoceanic
Mon 06:44:00 AM 28.4812 -137.2589 68° East 495 570 34,000  Level FlightAware Transoceanic
Mon 06:45:00 AM 28.5316 -137.1134 69° East 495 570 34,000  Level FlightAware Transoceanic
Mon 06:46:00 AM 28.5818 -136.9678 69° East 495 570 34,000  Level FlightAware Transoceanic
Mon 06:47:00 AM 28.6319 -136.8220 69° East 495 570 34,000  Level FlightAware Transoceanic
Mon 06:48:00 AM 28.6818 -136.6761 69° East 495 570 34,000  Level FlightAware Transoceanic
Mon 06:49:00 AM 28.7316 -136.5301 69° East 495 570 34,000  Level FlightAware Transoceanic
Mon 06:50:00 AM 28.7812 -136.3839 69° East 495 570 34,000  Level FlightAware Transoceanic
Mon 06:51:00 AM 28.8307 -136.2376 69° East 495 570 34,000  Level FlightAware Transoceanic
Mon 06:52:00 AM 28.8800 -136.0912 69° East 495 570 34,000  Level FlightAware Transoceanic
Mon 06:53:00 AM 28.9291 -135.9446 69° East 495 570 34,000  Level FlightAware Transoceanic
Mon 06:54:00 AM 28.9781 -135.7979 69° East 495 570 34,000  Level FlightAware Transoceanic
Mon 06:55:00 AM 29.0270 -135.6510 69° East 495 570 34,000  Level FlightAware Transoceanic
Mon 06:56:00 AM 29.0756 -135.5040 69° East 495 570 34,000  Level FlightAware Transoceanic
Mon 06:57:00 AM 29.1241 -135.3568 69° East 495 570 34,000  Level FlightAware Transoceanic
Mon 06:58:00 AM 29.1725 -135.2095 69° East 495 570 34,000  Level FlightAware Transoceanic
Mon 06:59:00 AM 29.2207 -135.0621 70° East 495 570 34,000  Level FlightAware Transoceanic
Mon 07:00:00 AM 29.2687 -134.9146 70° East 495 570 34,000  Level FlightAware Transoceanic
Mon 07:01:00 AM 29.3166 -134.7669 70° East 495 570 34,000  Level FlightAware Transoceanic
Mon 07:02:00 AM 29.3643 -134.6190 70° East 495 570 34,000  Level FlightAware Transoceanic
Mon 07:03:00 AM 29.4118 -134.4711 70° East 495 570 34,000  Level FlightAware Transoceanic
Mon 07:04:00 AM 29.4592 -134.3229 70° East 495 570 34,000  Level FlightAware Transoceanic
Mon 07:05:00 AM 29.5064 -134.1747 70° East 495 570 34,000  Level FlightAware Transoceanic
Mon 07:06:00 AM 29.5534 -134.0263 70° East 495 570 34,000  Level FlightAware Transoceanic
Mon 07:07:00 AM 29.6003 -133.8778 70° East 495 570 34,000  Level FlightAware Transoceanic
Mon 07:08:00 AM 29.6470 -133.7291 70° East 495 570 34,000  Level FlightAware Transoceanic
Mon 07:09:00 AM 29.6936 -133.5803 70° East 495 570 34,000  Level FlightAware Transoceanic
Mon 07:10:00 AM 29.7399 -133.4313 70° East 495 570 34,000  Level FlightAware Transoceanic
Mon 07:11:00 AM 29.7861 -133.2823 70° East 495 570 34,000  Level FlightAware Transoceanic
Mon 07:12:00 AM 29.8322 -133.1330 70° East 495 570 34,000  Level FlightAware Transoceanic
Mon 07:13:00 AM 29.8781 -132.9837 71° East 495 570 34,000  Level FlightAware Transoceanic
Mon 07:14:00 AM 29.9238 -132.8342 71° East 495 570 34,000  Level FlightAware Transoceanic
Mon 07:15:00 AM 29.9693 -132.6846 71° East 495 570 34,000  Level FlightAware Transoceanic
Mon 07:16:00 AM 30.0147 -132.5348 71° East 495 570 34,000  Level FlightAware Transoceanic
Mon 07:17:00 AM 30.0599 -132.3849 71° East 495 570 34,000  Level FlightAware Transoceanic
Mon 07:18:00 AM 30.1049 -132.2349 71° East 495 570 34,000  Level FlightAware Transoceanic
Mon 07:19:00 AM 30.1498 -132.0847 71° East 495 570 34,000  Level FlightAware Transoceanic
Mon 07:20:00 AM 30.1945 -131.9344 71° East 495 570 34,000  Level FlightAware Transoceanic
Mon 07:21:00 AM 30.2390 -131.7839 71° East 495 570 34,000  Level FlightAware Transoceanic
Mon 07:22:00 AM 30.2833 -131.6333 71° East 495 570 34,000  Level FlightAware Transoceanic
Mon 07:23:00 AM 30.3297 -131.4764 71° East 495 570 34,000  Level FlightAware Transoceanic
Mon 07:23:58 AM 30.2833 -131.6333 71° East 495 570 34,000  Level Oakland Oceanic (ODAPS)
Mon 07:24:00 AM 30.3758 -131.3193 71° East 495 570 34,000  Level FlightAware Transoceanic
Mon 07:25:00 AM 30.4218 -131.1620 71° East 495 570 34,000  Level FlightAware Transoceanic
Mon 07:26:00 AM 30.4676 -131.0046 71° East 495 570 34,000  Level FlightAware Transoceanic
Mon 07:27:00 AM 30.5131 -130.8470 71° East 495 570 34,000  Level FlightAware Transoceanic
Mon 07:28:00 AM 30.5585 -130.6893 72° East 495 570 34,000  Level FlightAware Transoceanic
Mon 07:29:00 AM 30.6037 -130.5315 72° East 495 570 34,000  Level FlightAware Transoceanic
Mon 07:30:00 AM 30.6341 -130.4251 72° East 495 570 34,000  Level FlightAware Transoceanic
Mon 07:31:00 AM 30.6771 -130.2735 72° East 495 570 34,000  Level FlightAware Transoceanic
Mon 07:32:00 AM 30.7200 -130.1217 72° East 495 570 34,000  Level FlightAware Transoceanic
Mon 07:33:00 AM 30.7627 -129.9698 72° East 495 570 34,000  Level FlightAware Transoceanic
Mon 07:34:00 AM 30.8052 -129.8178 72° East 495 570 34,000  Level FlightAware Transoceanic
Mon 07:35:00 AM 30.8476 -129.6656 72° East 495 570 34,000  Level FlightAware Transoceanic
Mon 07:36:00 AM 30.8897 -129.5133 72° East 495 570 34,000  Level FlightAware Transoceanic
Mon 07:37:00 AM 30.9317 -129.3608 72° East 495 570 34,000  Level FlightAware Transoceanic
Mon 07:38:00 AM 30.9736 -129.2083 72° East 495 570 34,000  Level FlightAware Transoceanic
Mon 07:39:00 AM 31.0152 -129.0555 72° East 495 570 34,000  Level FlightAware Transoceanic
Mon 07:40:00 AM 31.0566 -128.9027 72° East 495 570 34,000  Level FlightAware Transoceanic
Mon 07:41:00 AM 31.0979 -128.7497 73° East 495 570 34,000  Level FlightAware Transoceanic
Mon 07:42:00 AM 31.1390 -128.5966 73° East 495 570 34,000  Level FlightAware Transoceanic
Mon 07:43:00 AM 31.1799 -128.4434 73° East 495 570 34,000  Level FlightAware Transoceanic
Mon 07:44:00 AM 31.2206 -128.2900 73° East 495 570 34,000  Level FlightAware Transoceanic
Mon 07:45:00 AM 31.2612 -128.1365 73° East 495 570 34,000  Level FlightAware Transoceanic
Mon 07:46:00 AM 31.3015 -127.9828 73° East 495 570 34,000  Level FlightAware Transoceanic
Mon 07:47:00 AM 31.3417 -127.8291 73° East 495 570 34,000  Level FlightAware Transoceanic
Mon 07:48:00 AM 31.3817 -127.6752 73° East 495 570 34,000  Level FlightAware Transoceanic
Mon 07:49:00 AM 31.4215 -127.5211 73° East 495 570 34,000  Level FlightAware Transoceanic
Mon 07:50:00 AM 31.4612 -127.3670 73° East 495 570 34,000  Level FlightAware Transoceanic
Mon 07:51:00 AM 31.5006 -127.2127 73° East 495 570 34,000  Level FlightAware Transoceanic
Mon 07:52:00 AM 31.5399 -127.0583 73° East 495 570 34,000  Level FlightAware Transoceanic
Mon 07:53:00 AM 31.5789 -126.9037 74° East 495 570 34,000  Level FlightAware Transoceanic
Mon 07:54:00 AM 31.6178 -126.7490 74° East 495 570 34,000  Level FlightAware Transoceanic
Mon 07:55:00 AM 31.6565 -126.5942 74° East 495 570 34,000  Level FlightAware Transoceanic
Mon 07:56:00 AM 31.6950 -126.4393 74° East 495 570 34,000  Level FlightAware Transoceanic
Mon 07:57:00 AM 31.7334 -126.2842 74° East 495 570 34,000  Level FlightAware Transoceanic
Mon 07:58:00 AM 31.7715 -126.1290 74° East 495 570 34,000  Level FlightAware Transoceanic
Mon 07:59:00 AM 31.8095 -125.9737 74° East 495 570 34,000  Level FlightAware Transoceanic
Mon 08:00:00 AM 31.8472 -125.8183 74° East 495 570 34,000  Level FlightAware Transoceanic
Mon 08:01:00 AM 31.8848 -125.6627 74° East 495 570 34,000  Level FlightAware Transoceanic
Mon 08:02:00 AM 31.9222 -125.5070 74° East 495 570 34,000  Level FlightAware Transoceanic
Mon 08:03:00 AM 31.9594 -125.3511 74° East 495 570 34,000  Level FlightAware Transoceanic
Mon 08:04:00 AM 31.9964 -125.1952 74° East 495 570 34,000  Level FlightAware Transoceanic
Mon 08:05:00 AM 32.0332 -125.0391 74° East 495 570 34,000  Level FlightAware Transoceanic
Mon 08:06:00 AM 32.0698 -124.8829 75° East 495 570 34,000  Level FlightAware Transoceanic
Mon 08:07:00 AM 32.1062 -124.7266 75° East 495 570 34,000  Level FlightAware Transoceanic
Mon 08:08:00 AM 32.1424 -124.5701 75° East 495 570 34,000  Level FlightAware Transoceanic
Mon 08:08:56 AM 32.1833 -124.2258 77° East 528 608 34,000  Level Los Angeles Center
Mon 08:09:00 AM 32.1785 -124.4135 75° East 495 570 34,000  Level FlightAware Transoceanic
Mon 08:09:57 AM 32.2247 -124.0611 73° East 526 605 34,000  Level Los Angeles Center
Mon 08:10:00 AM 32.2143 -124.2568 75° East 495 570 34,000  Level FlightAware Transoceanic
Mon 08:10:57 AM 32.2872 -123.9050 65° Northeast 530 610 34,000  Level Los Angeles Center
Mon 08:11:00 AM 32.2500 -124.1000 77° East 495 570 34,000  Level FlightAware Transoceanic
Mon 08:11:57 AM 32.3572 -123.7558 61° Northeast 527 606 34,000  Level Los Angeles Center
Mon 08:12:00 AM 32.2868 -123.9170 77° East 495 570 34,000  Level FlightAware Transoceanic
Mon 08:12:57 AM 32.4308 -123.6097 59° Northeast 523 602 34,000  Level Los Angeles Center
Mon 08:13:00 AM 32.3233 -123.7339 77° East 495 570 34,000 1,000 Level FlightAware Transoceanic
Mon 08:13:57 AM 32.4997 -123.4550 62° Northeast 523 602 35,000  Climbing Los Angeles Center
Mon 08:14:00 AM 32.3595 -123.5507 77° East 495 570 34,000  Descending FlightAware Transoceanic
Mon 08:14:57 AM 32.5675 -123.3069 61° Northeast 523 602 35,000 337 Climbing Los Angeles Center
Mon 08:16:00 AM 32.6348 -123.1584 62° Northeast  Level FlightAware Approximate
Mon 08:16:58 AM 32.7044 -122.9989 62° Northeast 530 610 35,000  Level Los Angeles Center
Mon 08:17:58 AM 32.7736 -122.8436 62° Northeast 532 612 35,000  Level Los Angeles Center
Mon 08:19:00 AM 32.8394 -122.6968 62° Northeast  Level FlightAware Approximate
Mon 08:19:59 AM 32.9117 -122.5275 62° Northeast 539 620 35,000  Level Los Angeles Center
Mon 08:21:00 AM 32.9763 -122.3828 62° Northeast  Level FlightAware Approximate
Mon 08:22:59 AM 33.1253 -122.0628 62° Northeast 537 618 35,000  Level Los Angeles Center
Mon 08:24:00 AM 33.1955 -121.9215 59° Northeast  Level Estimated
Mon 08:25:00 AM 33.2639 -121.7467 59° Northeast 540 621 35,000  Level Los Angeles Center
Mon 08:26:00 AM 33.3461 -121.5542 63° Northeast 542 624 35,000  Level Los Angeles Center
Mon 08:27:00 AM 33.4156 -121.3928 63° Northeast 546 628 35,000  Level Los Angeles Center
Mon 08:28:00 AM 33.4169 -121.3807 62° Northeast  Level FlightAware Approximate
Mon 08:28:01 AM 33.4839 -121.2300 63° Northeast 548 631 35,000  Level Los Angeles Center
Mon 08:30:00 AM 33.6196 -120.9522 60° Northeast  Level Estimated
Mon 08:31:01 AM 33.6867 -120.7389 60° Northeast 550 633 35,000  Level Los Angeles Center
Mon 08:32:02 AM 33.7542 -120.5783 63° Northeast 545 627 35,000  Level Los Angeles Center
Mon 08:33:02 AM 33.8208 -120.4172 63° Northeast 543 625 35,000  Level Los Angeles Center
Mon 08:34:02 AM 33.8878 -120.2578 63° Northeast 542 624 35,000  Level Los Angeles Center
Mon 08:36:00 AM 34.0159 -119.9763 65° Northeast  Level FlightAware Approximate
Mon 08:37:03 AM 34.0881 -119.7703 65° Northeast 544 626 35,000  Level Los Angeles Center
Mon 08:39:00 AM 34.2036 -119.4836 64° Northeast  Level FlightAware Approximate
Mon 08:41:05 AM 34.3522 -119.1144 65° Northeast 541 623 35,000  Level Los Angeles Center
Mon 08:42:05 AM 34.4164 -118.9508 65° Northeast 538 619 35,000  Level Los Angeles Center
Mon 08:43:05 AM 34.4803 -118.7892 64° Northeast 533 613 35,000  Level Los Angeles Center
Mon 08:45:00 AM 34.5893 -118.5035 65° Northeast  Level FlightAware Approximate
Mon 08:46:00 AM 34.6094 -118.4462 65° Northeast  Level FlightAware Approximate
Mon 08:46:06 AM 34.6717 -118.2983 65° Northeast 528 608 35,000  Level Los Angeles Center
Mon 08:47:06 AM 34.7342 -118.1386 65° Northeast 524 603 35,000  Level Los Angeles Center
Mon 08:48:07 AM 34.7964 -117.9786 65° Northeast 526 605 35,000  Level Los Angeles Center
Mon 08:50:00 AM 34.9042 -117.6972 65° Northeast  Level FlightAware Approximate
Mon 08:52:08 AM 35.0356 -117.3433 65° Northeast 527 606 35,000  Level Los Angeles Center
Mon 08:53:08 AM 35.0958 -117.1844 65° Northeast 523 602 35,000 265 Level Los Angeles Center
Mon 08:55:09 AM 35.2156 -116.8672 65° Northeast 518 596 35,800 496 Climbing Los Angeles Center
Mon 08:57:00 AM 35.2993 -116.6450 65° Northeast  Level FlightAware Approximate
Mon 08:57:10 AM 35.3278 -116.5600 66° East 495 570 37,000  Level Los Angeles Center
Mon 08:58:10 AM 35.3967 -116.3725 66° East 504 580 37,000  Level Los Angeles Center
Mon 08:59:11 AM 35.4558 -116.2147 65° Northeast 511 588 37,000  Level Los Angeles Center
Mon 09:00:11 AM 35.5133 -116.0544 66° East 514 592 37,000  Level Los Angeles Center
Mon 09:01:12 AM 35.5706 -115.8947 66° East 513 590 37,000  Level Los Angeles Center
Mon 09:02:12 AM 35.6303 -115.7303 66° East 506 582 37,000  Level Los Angeles Center
Mon 09:04:00 AM 35.7160 -115.4475 66° East  Level FlightAware Approximate
Mon 09:07:15 AM 35.9017 -114.9617 67° East 487 560 37,000  Level Los Angeles Center
Mon 09:08:15 AM 35.9547 -114.8075 67° East 491 565 37,000  Level Los Angeles Center
Mon 09:09:16 AM 36.0083 -114.6531 67° East 492 566 37,000  Level Los Angeles Center
Mon 09:10:16 AM 36.0619 -114.4989 67° East 491 565 37,000  Level Los Angeles Center
Mon 09:11:00 AM 36.1005 -114.3701 67° East  Level FlightAware Approximate
Mon 09:11:17 AM 36.1147 -114.3439 67° East 492 566 37,000  Level Los Angeles Center
Mon 09:12:00 AM 36.1540 -114.2150 67° East  Level FlightAware Approximate
Mon 09:12:18 AM 36.1667 -114.1908 67° East 488 562 37,000  Level Los Angeles Center
Mon 09:13:00 AM 36.2073 -114.0597 67° East  Level FlightAware Approximate
Mon 09:13:18 AM 36.2200 -114.0358 67° East 489 563 37,000  Level Los Angeles Center
Mon 09:14:19 AM 36.2728 -113.8808 67° East 489 563 37,000  Level Los Angeles Center
Mon 09:15:20 AM 36.3258 -113.7258 67° East 490 564 37,000  Level Los Angeles Center
Mon 09:16:21 AM 36.3772 -113.5703 68° East 489 563 37,000  Level Los Angeles Center
Mon 09:18:04 AM 36.4689 -113.2844 68° East 484 557 37,000  Level Denver Center
Mon 09:18:22 AM 36.4906 -113.2281 64° Northeast 487 560 37,000  Level Los Angeles Center
Mon 09:19:23 AM 36.5417 -113.0711 68° East 487 560 37,000  Level Los Angeles Center
Mon 09:21:07 AM 36.6219 -112.8228 68° East 484 557 37,000  Level Denver Center
Mon 09:21:25 AM 36.6428 -112.7631 66° East 484 557 37,000  Level Los Angeles Center
Mon 09:23:09 AM 36.7211 -112.5211 68° East 476 548 37,000  Level Denver Center
Mon 09:23:27 AM 36.7408 -112.4600 68° East 475 547 37,000  Level Los Angeles Center
Mon 09:25:11 AM 36.8294 -112.1864 68° East 477 549 37,000  Level Denver Center
Mon 09:26:12 AM 36.8783 -112.0353 68° East 475 547 37,000  Level Denver Center
Mon 09:28:00 AM 36.9420 -111.7940 72° East  Level FlightAware Approximate
Mon 09:29:33 AM 37.0428 -111.5117 72° East 480 552 37,000  Level Los Angeles Center
Mon 09:30:16 AM 37.0703 -111.4186 70° East 476 548 37,000  Level Denver Center
Mon 09:31:17 AM 37.1183 -111.2628 69° East 480 552 37,000  Level Denver Center
Mon 09:32:18 AM 37.1678 -111.1064 68° East 485 558 37,000  Level Denver Center
Mon 09:33:19 AM 37.2150 -110.9492 69° East 485 558 37,000  Level Denver Center
Mon 09:35:00 AM 37.2919 -110.6795 70° East  Level FlightAware Approximate
Mon 09:35:21 AM 37.3214 -110.5992 70° East 489 563 37,000  Level Denver Center
Mon 09:36:22 AM 37.3683 -110.4403 70° East 487 560 37,000  Level Denver Center
Mon 09:37:23 AM 37.4164 -110.2794 69° East 492 566 37,000  Level Denver Center
Mon 09:38:24 AM 37.4711 -110.1283 65° Northeast 493 567 37,000  Level Denver Center
Mon 09:39:25 AM 37.5456 -109.9603 61° Northeast 492 566 37,000  Level Denver Center
Mon 09:40:26 AM 37.6081 -109.8167 61° Northeast 489 563 37,000  Level Denver Center
Mon 09:41:27 AM 37.6719 -109.6728 61° Northeast 490 564 37,000  Level Denver Center
Mon 09:42:29 AM 37.7458 -109.5072 61° Northeast 484 557 37,000  Level Denver Center
Mon 09:43:30 AM 37.8081 -109.3628 61° Northeast 486 559 37,000  Level Denver Center
Mon 09:45:00 AM 37.9002 -109.1331 63° Northeast  Level FlightAware Approximate
Mon 09:45:32 AM 37.9422 -109.0522 63° Northeast 482 555 37,000  Level Denver Center
Mon 09:46:33 AM 38.0036 -108.9100 61° Northeast 480 552 37,000  Level Denver Center
Mon 09:47:34 AM 38.0708 -108.7494 62° Northeast 485 558 37,000  Level Denver Center
Mon 09:49:37 AM 38.2008 -108.4433 62° Northeast 477 549 37,000  Level Denver Center
Mon 09:51:00 AM 38.2826 -108.2284 64° Northeast  Level FlightAware Approximate
Mon 09:51:39 AM 38.3208 -108.1583 64° Northeast 476 548 37,000  Level Denver Center
Mon 09:52:41 AM 38.3908 -107.9928 62° Northeast 477 549 37,000 -318 Level Denver Center
Mon 09:54:00 AM 38.4728 -107.7904 63° Northeast  Level FlightAware Approximate
Mon 09:55:44 AM 38.5678 -107.5642 63° Northeast 477 549 35,700  Level Denver Center
Mon 09:56:46 AM 38.6447 -107.3764 62° Northeast 472 543 35,000 -341 Descending Denver Center
Mon 09:57:47 AM 38.7033 -107.2317 63° Northeast 478 550 35,000  Level Denver Center
Mon 09:59:00 AM 38.7768 -107.0423 63° Northeast  Level FlightAware Approximate
Mon 10:00:51 AM 38.8919 -106.7642 63° Northeast 487 560 35,000  Level Denver Center
Mon 10:01:00 AM 38.9029 -106.7065 63° Northeast  Level FlightAware Approximate
Mon 10:01:53 AM 38.9603 -106.5931 63° Northeast 484 557 34,100  Level Denver Center
Mon 10:02:54 AM 39.0200 -106.4414 63° Northeast 494 568 31,800 -2,082 Descending Denver Center
Mon 10:05:00 AM 39.1727 -106.1278 58° Northeast  Level Estimated
Mon 10:05:58 AM 39.2014 -105.9806 58° Northeast 448 516 25,600  Level Denver Center
Mon 10:06:00 AM 39.2024 -105.9528 63° Northeast  Level FlightAware Approximate
Mon 10:07:00 AM 39.2547 -105.8425 63° Northeast 429 494 23,800  Level Denver Center
Mon 10:08:01 AM 39.3064 -105.7106 63° Northeast 412 474 22,100 -1,141 Descending Denver Center
Mon 10:10:04 AM 39.4061 -105.4572 63° Northeast 382 440 20,300 -1,109 Descending Denver Center
Mon 10:11:59 AM 39.5167 -105.2667 53° Northeast 330 380 17,700 -1,232 Descending Denver TRACON
Mon 10:13:09 AM 39.5664 -105.1561 60° Northeast 314 361 16,500 -1,008 Descending Denver Center
Mon 10:14:10 AM 39.6181 -105.0564 56° Northeast 312 359 15,500 -927 Descending Denver Center
Mon 10:15:12 AM 39.6683 -104.9614 55° Northeast 317 365 14,600 -1,065 Descending Denver Center
Mon 10:16:14 AM 39.7158 -104.8689 56° Northeast 316 364 13,300 -1,268 Descending Denver Center
Mon 10:17:15 AM 39.7947 -104.8425 14° North 280 322 12,000 -927 Descending Denver Center
Mon 10:18:17 AM 39.8572 -104.8408 North 287 330 11,400 -722 Descending Denver Center
Mon 10:19:53 AM 39.9833 -104.8333 North 237 273 10,100 -1,070 Descending Denver TRACON
Mon 10:21:22 AM 40.0831 -104.8361 359° North 242 278 8,100 -867 Descending Denver Center
Mon 10:22:53 AM 40.0500 -104.7500 117° Southeast 214 246 7,500 -485 Descending Denver TRACON
Mon 10:23:38 AM 40.0158 -104.7317 158° South 213 245 7,000 -600 Descending Denver Center
Mon 10:25:53 AM 39.9167 -104.7000 166° South 148 170 5,700 -578 Descending Denver TRACON

Login

Don't have an account? Register now (free) for customized features, flight alerts, and more!